CheckWX is a tool to help pilots better visualize weather data.  It is not intended as a substitute for an official pre-flight weather briefing.

18:46:36 UTC

KHSD METAR
Sundance Airport
Oklahoma City, Oklahoma, USA
Current

27 mins ago

KHSD 221820Z AUTO 10008KT 10SM OVC007 07/06 A3003 RMK A01
Observed
Feb-22 @ 18:20 UTC
Wind
  • 100° at 8 KTS
Visibility
10 SM
Flight Rules
IFR
Cloud Levels
  • Overcast at 700' AGL
Temperature
C / 45°F
Dewpoint
C / 43°F
Humidity
93%
Altimeter
30.03" Hg
Pressure
1016.92 hPa
Previous

47 mins ago

KHSD 221800Z AUTO 09009KT 10SM OVC006 06/06 A3003 RMK A01
Observed
Feb-22 @ 18:00 UTC
Wind
  • 090° at 9 KTS
Visibility
10 SM
Flight Rules
IFR
Cloud Levels
  • Overcast at 600' AGL
Temperature
C / 43°F
Dewpoint
C / 43°F
Humidity
100%
Altimeter
30.03" Hg
Pressure
1016.92 hPa
Previous

1 hour ago

KHSD 221740Z AUTO 09009G15KT 9SM OVC006 06/06 A3005 RMK A01
Observed
Feb-22 @ 17:40 UTC
Wind
  • 090° at 9 KTS
  • Gusting to KTS
Visibility
9 SM
Flight Rules
IFR
Cloud Levels
  • Overcast at 600' AGL
Temperature
C / 43°F
Dewpoint
C / 43°F
Humidity
100%
Altimeter
30.05" Hg
Pressure
1017.62 hPa